Terminal Aerodrome Forecast
Issued by NWS Wilmington, OH

Current Version | Previous Version | Text Only | Print | Product List | Glossary On
Versions: 1 2 3 4 5 6 7 8 9 10 11 12 13 14 15 16
000
FTUS41 KILN 271346 AAA
TAFDAY
TAF AMD
KDAY 271346Z 2714/2812 20004KT P6SM VCSH SCT050 OVC120
     FM271600 23007KT P6SM VCTS SCT035 OVC060CB
     FM272100 24008KT 5SM -SHRA BR VCTS OVC035CB
     FM280000 25006KT P6SM VCSH OVC035
     FM280200 34004KT P6SM OVC035
     FM280500 36003KT P6SM OVC010
     FM280900 01004KT P6SM OVC006=

USA.gov is the U.S. government's official web portal to all federal, state and local government web resources and services.